Latest Weather Observations for Ouse

IDT60801

Issued at 9:05 pm EDT Wednesday 26 November 2014 (issued every 30 minutes, with the page automatically refreshed every 10 minutes)

About weather observations | Map of weather stations | Latest weather observations for TAS | Other Formats
Station Details ID: 095048 Name: OUSE FIRE STATION Lat: -42.48 Lon: 146.71 Height: 90.0 m
Data from the previous 72 hours. | See also: Recent months at Ouse
Date/Time
EDT
Temp
°C
App
Temp
°C
Dew
Point
Rel
Hum
%
Delta-T
°C
Wind Press
QNH
hPa
Press
MSL
hPa
Rain
since 9 am
mm
Dir
 
Spd
km/h
Gust
km/h
Spd
kts
Gust
kts
26/09:00pm 11.4 6.5 5.1 65 2.9 W 20 30 11 16 1021.1 1021.1 0.0
26/08:30pm 11.6 6.8 4.6 62 3.2 W 19 30 10 16 1020.4 1020.4 0.0
26/08:00pm 12.0 7.3 5.2 63 3.1 W 19 28 10 15 1020.3 1020.3 0.0
26/07:30pm 12.5 7.8 5.2 61 3.4 W 19 28 10 15 1019.8 1019.8 0.0
26/07:00pm 13.5 8.8 6.1 61 3.5 W 20 28 11 15 1019.6 1019.6 0.0
26/06:30pm 14.3 9.2 5.9 57 4.0 WSW 22 37 12 20 1019.0 1018.9 0.0
26/06:00pm 14.1 9.0 6.2 59 3.8 W 22 37 12 20 1018.6 1018.5 0.0
26/05:30pm 15.4 10.2 7.2 58 4.1 W 24 37 13 20 1018.3 1018.2 0.0
26/05:00pm 16.1 11.2 7.1 55 4.5 W 22 30 12 16 1018.1 1018.0 0.0
26/04:30pm 16.7 11.4 6.8 52 4.9 W 24 41 13 22 1017.6 1017.5 0.0
26/04:00pm 15.6 11.5 8.8 64 3.5 WSW 20 32 11 17 1017.6 1017.5 0.0
26/03:30pm 16.5 12.1 7.4 55 4.6 W 20 32 11 17 1017.2 1017.1 0.0
26/03:00pm 15.6 9.2 7.1 57 4.2 W 30 46 16 25 1017.3 1017.2 0.0
26/02:30pm 16.6 12.4 8.3 58 4.2 WSW 20 35 11 19 1017.0 1016.9 0.0
26/02:00pm 16.4 11.2 7.3 55 4.5 WSW 24 41 13 22 1016.7 1016.6 0.0
26/01:30pm 15.5 11.4 6.2 54 4.5 SSW 17 22 9 12 1016.6 1016.5 0.0
26/01:00pm 15.5 11.5 6.8 56 4.3 W 17 32 9 17 1016.5 1016.4 0.0
26/12:30pm 16.0 10.6 8.2 60 4.0 W 26 39 14 21 1016.4 1016.3 0.0
26/12:00pm 15.6 9.6 6.9 56 4.3 W 28 39 15 21 1015.8 1015.8 0.0
26/11:33am 14.7 8.6 6.8 59 3.9 W 28 48 15 26 1015.6 1015.6 0.0
26/11:30am 15.6 10.4 8.8 64 3.5 W 26 39 14 21 1015.6 1015.6 0.0
26/11:00am 13.9 8.6 7.0 63 3.4 W 24 32 13 17 1015.4 1015.4 0.0
26/10:30am 13.4 9.1 7.2 66 3.0 WSW 19 28 10 15 1015.3 1015.3 0.0
26/10:00am 13.4 8.2 5.6 59 3.7 WSW 22 32 12 17 1014.7 1014.7 0.0
26/09:30am 13.2 8.1 5.9 61 3.5 WSW 22 37 12 20 1014.5 1014.5 0.0
26/09:00am 12.7 6.3 5.1 60 3.5 W 28 41 15 22 1014.0 1014.0 0.2
26/08:30am 12.0 7.5 6.3 68 2.7 W 19 35 10 19 1013.7 1013.7 0.2
26/08:00am 11.5 6.8 6.0 69 2.6 NW 20 35 11 19 1013.2 1013.2 0.2
26/07:30am 11.3 6.5 5.4 67 2.7 WNW 20 35 11 19 1012.7 1012.7 0.2
26/07:00am 11.1 5.9 5.4 68 2.6 WNW 22 32 12 17 1012.3 1012.3 0.2
26/06:30am 11.4 7.4 5.1 65 2.9 WNW 15 32 8 17 1011.8 1011.8 0.2
26/06:00am 11.1 6.7 5.0 66 2.8 W 17 35 9 19 1011.6 1011.6 0.2
26/05:30am 11.5 8.0 7.0 74 2.2 WSW 15 28 8 15 1010.9 1010.9 0.2
26/05:00am 11.9 7.2 7.6 75 2.1 W 22 39 12 21 1010.0 1009.9 0.2
26/04:30am 12.0 8.3 8.1 77 1.9 NW 17 30 9 16 1009.6 1009.5 0.2
26/04:00am 12.2 9.3 8.1 76 2.0 WNW 13 24 7 13 1009.5 1009.4 0.2
26/03:30am 12.3 8.9 9.0 80 1.7 NW 17 26 9 14 1009.1 1009.0 0.2
26/03:00am 11.9 8.5 9.1 83 1.4 NW 17 26 9 14 1009.0 1008.9 0.2
26/02:30am 11.9 8.0 9.3 84 1.3 NW 20 35 11 19 1009.0 1008.9 0.2
26/02:00am 12.0 8.1 8.7 80 1.7 NW 19 24 10 13 1009.1 1009.0 0.2
26/01:30am 10.5 7.3 8.6 88 0.9 N 15 20 8 11 1009.4 1009.3 0.2
26/01:00am 10.7 7.1 8.3 85 1.2 N 17 24 9 13 1009.9 1009.8 0.2
26/12:30am 10.8 7.8 7.9 82 1.4 N 13 19 7 10 1010.4 1010.4 0.2
26/12:00am 11.3 7.0 8.0 80 1.6 NW 20 41 11 22 1010.9 1010.9 0.2
 
Date/Time
EDT
Temp
°C
App
Temp
°C
Dew
Point
Rel
Hum
%
Delta-T
°C
Wind Press
QNH
hPa
Press
MSL
hPa
Rain
since 9 am
mm
Dir
 
Spd
km/h
Gust
km/h
Spd
kts
Gust
kts
25/11:30pm 11.0 7.2 7.5 79 1.7 NNW 17 26 9 14 1011.2 1011.2 0.2
25/11:00pm 11.3 7.1 7.4 77 1.9 NNW 19 32 10 17 1011.6 1011.6 0.2
25/10:30pm 11.3 7.0 7.2 76 2.0 NNW 19 32 10 17 1012.0 1012.0 0.2
25/10:00pm 11.4 7.1 6.9 74 2.2 NNW 19 30 10 16 1012.1 1012.1 0.2
25/09:30pm 11.3 7.8 7.0 75 2.1 NNW 15 22 8 12 1012.1 1012.1 0.2
25/09:00pm 11.0 7.9 7.1 77 1.9 N 13 19 7 10 1011.8 1011.8 0.2
25/08:30pm 11.6 8.4 6.7 72 2.3 NNW 13 20 7 11 1011.8 1011.8 0.2
25/08:00pm 12.0 6.6 6.3 68 2.7 WNW 24 37 13 20 1011.7 1011.7 0.2
25/07:30pm 11.8 7.1 6.1 68 2.7 WNW 20 30 11 16 1011.6 1011.6 0.2
25/07:00pm 11.4 7.6 7.5 77 1.9 W 17 24 9 13 1011.6 1011.6 0.2
25/06:30pm 12.7 6.4 7.2 69 2.7 WNW 30 48 16 26 1011.0 1011.0 0.2
25/06:28pm 12.7 6.2 6.7 67 2.9 WNW 30 48 16 26 1010.9 1010.9 0.2
25/06:00pm 12.9 8.2 7.6 70 2.6 W 22 37 12 20 1010.8 1010.8 0.2
25/05:30pm 12.9 7.2 6.9 67 2.9 WNW 26 39 14 21 1010.6 1010.6 0.2
25/05:00pm 13.7 7.4 7.2 65 3.2 WNW 30 44 16 24 1010.2 1010.2 0.2
25/04:30pm 15.2 9.1 8.2 63 3.5 WNW 30 50 16 27 1009.9 1009.8 0.2
25/04:00pm 14.7 7.8 7.3 61 3.7 W 33 57 18 31 1009.5 1009.4 0.2
25/03:32pm 15.7 9.3 8.4 62 3.7 WNW 32 50 17 27 1009.3 1009.2 0.2
25/03:30pm 16.0 10.1 9.0 63 3.6 WNW 30 46 16 25 1009.3 1009.2 0.2
25/03:27pm 15.5 9.8 8.5 63 3.6 W 28 46 15 25 1009.2 1009.1 0.2
25/03:00pm 15.4 10.4 9.5 68 3.1 WNW 26 43 14 23 1009.0 1008.9 0.2
25/02:30pm 15.8 10.5 9.7 67 3.2 W 28 46 15 25 1009.1 1009.0 0.2
25/02:23pm 15.8 10.6 10.3 70 2.9 W 28 46 15 25 1008.8 1008.7 0.2
25/02:00pm 16.5 10.9 8.7 60 4.0 WNW 28 44 15 24 1008.2 1008.1 0.2
25/01:34pm 15.8 9.7 8.3 61 3.8 WNW 30 48 16 26 1008.4 1008.3 0.2
25/01:30pm 15.9 9.2 7.4 57 4.2 WNW 32 48 17 26 1008.3 1008.2 0.2
25/01:00pm 15.4 10.4 9.5 68 3.1 W 26 44 14 24 1008.3 1008.2 0.2
25/12:30pm 15.4 10.4 8.2 62 3.6 WNW 24 41 13 22 1008.1 1008.0 0.2
25/12:14pm 15.7 9.7 7.2 57 4.2 WSW 28 50 15 27 1007.7 1007.6 0.2
25/12:00pm 15.8 12.1 8.1 60 3.9 W 17 26 9 14 1007.9 1007.8 0.2
25/11:30am 15.2 11.0 7.5 60 3.8 WNW 19 28 10 15 1008.0 1007.9 0.2
25/11:00am 14.7 10.2 8.4 66 3.2 WSW 22 37 12 20 1008.1 1008.0 0.2
25/10:30am 14.5 11.1 7.8 64 3.3 W 15 24 8 13 1008.1 1008.0 0.2
25/10:00am 13.6 7.0 7.8 68 2.9 W 32 50 17 27 1008.1 1008.0 0.0
25/09:54am 12.5 5.6 6.3 66 3.0 W 32 50 17 27 1008.0 1007.9 0.0
25/09:51am 12.7 5.9 7.0 68 2.8 W 32 43 17 23 1008.0 1007.9 0.0
25/09:30am 13.0 9.6 7.5 69 2.7 WNW 15 24 8 13 1007.7 1007.6 0.0
25/09:00am 13.4 9.0 7.2 66 3.0 W 20 39 11 21 1007.3 1007.2 1.8
25/08:30am 13.0 7.7 7.0 67 2.9 WNW 24 37 13 20 1006.5 1006.4 1.8
25/08:00am 11.4 6.8 6.7 73 2.2 WNW 20 39 11 21 1005.9 1005.8 1.8
25/07:30am 11.7 6.3 6.4 70 2.5 WNW 24 35 13 19 1005.2 1005.1 1.8
25/07:00am 11.2 5.8 6.5 73 2.2 NW 24 44 13 24 1004.5 1004.5 1.8
25/06:48am 11.8 5.6 6.1 68 2.7 NW 28 50 15 27 1004.5 1004.5 1.8
25/06:30am 11.5 6.4 6.0 69 2.6 WNW 22 41 12 22 1004.4 1004.4 1.8
25/06:00am 11.2 6.5 6.1 71 2.4 NW 20 39 11 21 1004.0 1004.0 1.8
25/05:30am 10.7 6.7 6.6 76 1.9 NNW 17 32 9 17 1003.4 1003.4 1.8
25/05:00am 11.1 7.9 6.8 75 2.1 NW 13 24 7 13 1003.3 1003.3 1.8
25/04:30am 10.1 6.2 7.2 82 1.4 N 17 24 9 13 1002.6 1002.6 1.8
25/04:00am 10.0 6.9 7.3 83 1.3 N 13 20 7 11 1002.7 1002.7 1.8
25/03:30am 9.8 5.5 7.1 83 1.3 N 19 26 10 14 1002.6 1002.6 1.8
25/03:00am 9.7 5.7 6.8 82 1.4 N 17 26 9 14 1002.7 1002.7 1.8
25/02:30am 9.8 6.6 6.9 82 1.4 N 13 24 7 13 1003.0 1003.0 1.8
25/02:00am 9.6 6.7 6.7 82 1.4 N 11 20 6 11 1003.1 1003.1 1.8
25/01:30am 9.4 5.7 6.3 81 1.4 N 15 24 8 13 1002.9 1002.9 1.8
25/01:00am 9.8 5.3 6.3 79 1.6 NNW 19 28 10 15 1003.5 1003.5 1.8
25/12:30am 9.2 5.4 5.8 79 1.6 N 15 24 8 13 1003.7 1003.7 1.8
25/12:00am 9.6 6.2 5.8 77 1.8 N 13 20 7 11 1003.9 1003.9 1.8
 
Date/Time
EDT
Temp
°C
App
Temp
°C
Dew
Point
Rel
Hum
%
Delta-T
°C
Wind Press
QNH
hPa
Press
MSL
hPa
Rain
since 9 am
mm
Dir
 
Spd
km/h
Gust
km/h
Spd
kts
Gust
kts
24/11:30pm 9.6 6.3 6.5 81 1.4 N 13 22 7 12 1003.9 1003.9 1.8
24/11:00pm 9.2 5.9 6.5 83 1.3 N 13 17 7 9 1004.1 1004.1 1.8
24/10:30pm 8.7 5.9 7.0 89 0.8 N 11 15 6 8 1004.4 1004.4 1.8
24/10:00pm 8.9 6.8 6.7 86 1.0 N 7 11 4 6 1004.4 1004.4 1.8
24/09:30pm 9.7 7.5 6.4 80 1.5 NNW 7 11 4 6 1004.3 1004.3 1.8
24/09:00pm 9.8 6.9 6.3 79 1.6 NNW 11 15 6 8 1004.2 1004.2 1.8
24/08:30pm 11.4 8.8 6.1 70 2.5 NW 9 15 5 8 1004.0 1004.0 1.8
24/08:00pm 12.5 8.3 5.9 64 3.1 WNW 17 30 9 16 1003.8 1003.8 1.8
24/07:30pm 13.3 8.2 7.7 69 2.8 WNW 24 39 13 21 1003.2 1003.2 1.8
24/07:25pm 13.4 7.6 8.0 70 2.7 WNW 28 39 15 21 1003.1 1003.1 1.8
24/07:00pm 14.5 12.9 10.3 76 2.2 W 9 17 5 9 1002.4 1002.4 1.8
24/06:30pm 14.5 11.0 10.9 79 1.9 W 20 32 11 17 1002.1 1002.1 1.8
24/06:00pm 13.9 10.7 11.8 87 1.1 W 20 33 11 18 1002.0 1002.0 1.8
24/05:30pm 13.9 14.0 13.9 100 0.0 WNW 6 7 3 4 1002.0 1002.0 1.4
24/05:00pm 13.2 12.9 13.2 100 0.0 NNW 7 9 4 5 1002.2 1002.2 1.4
24/04:30pm 13.1 14.1 13.1 100 0.0 CALM 0 0 0 0 1002.5 1002.5 1.4
24/04:00pm 12.8 12.5 12.6 99 0.1 SSW 6 7 3 4 1002.9 1002.9 1.4
24/03:30pm 12.8 12.7 12.2 96 0.3 E 4 6 2 3 1003.2 1003.2 1.0
24/03:00pm 13.0 12.8 11.9 93 0.6 SSE 4 7 2 4 1003.3 1003.3 1.0
24/02:30pm 13.3 12.2 11.9 91 0.8 S 9 13 5 7 1003.5 1003.5 1.0
24/02:00pm 13.2 13.6 11.4 89 1.0 CALM 0 0 0 0 1004.5 1004.5 1.0
24/01:30pm 12.8 12.1 11.5 92 0.7 ENE 6 9 3 5 1005.2 1005.1 1.0
24/01:00pm 12.4 12.6 10.6 89 0.9 CALM 0 0 0 0 1005.6 1005.5 1.0
24/12:30pm 11.9 11.7 10.6 92 0.7 E 2 6 1 3 1006.3 1006.2 0.8
24/12:00pm 11.5 11.2 10.2 92 0.7 ESE 2 7 1 4 1006.8 1006.7 0.8
24/11:30am 11.1 10.1 10.3 95 0.4 SSE 6 9 3 5 1007.3 1007.2 0.8
24/11:00am 10.6 9.0 10.3 98 0.2 SSE 9 11 5 6 1007.5 1007.4 0.8
24/10:30am 10.5 10.3 10.5 100 0.0 E 2 6 1 3 1008.5 1008.4 0.8
24/10:00am 10.1 9.4 9.9 99 0.1 E 4 6 2 3 1008.8 1008.7 0.6
24/09:30am 9.6 9.4 9.0 96 0.3 CALM 0 0 0 0 1009.1 1009.0 0.4
24/09:00am 9.2 8.1 8.4 95 0.4 ESE 4 7 2 4 1009.1 1009.0 0.0
24/08:30am 9.0 7.3 8.2 95 0.4 W 7 11 4 6 1009.0 1008.9 0.0
24/08:00am 8.1 6.5 8.0 99 0.0 N 6 7 3 4 1009.6 1009.5 0.0
24/07:30am 7.2 6.2 7.2 100 0.0 SW 2 6 1 3 1009.0 1008.9 0.0
24/07:00am 6.5 4.6 6.5 100 0.0 ENE 6 11 3 6 1009.2 1009.1 0.0
24/06:30am 5.4 4.0 5.4 100 0.0 NW 2 9 1 5 1009.4 1009.3 0.0
24/06:00am 4.7 2.8 4.7 100 0.0 WNW 4 9 2 5 1009.3 1009.2 0.0
24/05:30am 3.6 2.2 3.6 100 0.0 CALM 0 0 0 0 1009.8 1009.7 0.0
24/05:00am 3.2 0.4 3.2 100 0.0 NNE 7 9 4 5 1009.8 1009.7 0.0
24/04:30am 3.7 1.9 3.7 100 0.0 NW 2 7 1 4 1010.0 1009.9 0.0
24/04:00am 3.9 1.8 3.9 100 0.0 NW 4 6 2 3 1009.9 1009.8 0.0
24/03:30am 4.3 3.0 4.3 100 0.0 CALM 0 0 0 0 1010.2 1010.2 0.0
24/03:00am 4.7 3.1 4.4 98 0.1 NW 2 7 1 4 1010.3 1010.3 0.0
24/02:30am 5.3 3.1 5.3 100 0.0 NNW 6 6 3 3 1010.4 1010.4 0.0
24/02:00am 6.0 4.2 5.6 97 0.2 NNW 4 7 2 4 1010.5 1010.5 0.0
24/01:30am 6.8 4.6 5.3 90 0.7 NNW 6 7 3 4 1010.9 1010.9 0.0
24/01:00am 7.9 5.5 5.4 84 1.1 NNW 7 7 4 4 1011.0 1011.0 0.0
24/12:30am 8.5 6.1 5.3 80 1.4 N 7 9 4 5 1011.4 1011.4 0.0
24/12:00am 9.0 6.3 5.4 78 1.6 N 9 11 5 6 1011.5 1011.5 0.0
 
Date/Time
EDT
Temp
°C
App
Temp
°C
Dew
Point
Rel
Hum
%
Delta-T
°C
Wind Press
QNH
hPa
Press
MSL
hPa
Rain
since 9 am
mm
Dir
 
Spd
km/h
Gust
km/h
Spd
kts
Gust
kts
23/11:30pm 10.2 7.6 6.0 75 2.0 NNW 9 15 5 8 1011.4 1011.4 0.0
23/11:00pm 11.1 8.9 6.0 71 2.4 N 7 9 4 5 1011.6 1011.6 0.0
23/10:30pm 11.9 8.9 6.0 67 2.8 N 11 13 6 7 1012.0 1012.0 0.0
23/10:00pm 13.7 11.5 6.3 61 3.6 NW 7 11 4 6 1012.2 1012.2 0.0
23/09:30pm 15.8 12.4 5.7 51 4.9 W 13 22 7 12 1012.1 1012.1 0.0

Other Formats:

Comma delimited format used in spreadsheet applications
http://www.bom.gov.au/fwo/IDT60801/IDT60801.94957.axf

JavaScript Object Notation format (JSON) in row-major order
http://www.bom.gov.au/fwo/IDT60801/IDT60801.94957.json